sensor_id;sensor_type;location;lat;lon;timestamp;P1;durP1;ratioP1;P2;durP2;ratioP2
69835;SDS011;57132;51.972;4.450;2023-03-14T00:00:05;18.35;;;3.50;;
69835;SDS011;57132;51.972;4.450;2023-03-14T00:02:33;16.33;;;3.25;;
69835;SDS011;57132;51.972;4.450;2023-03-14T00:04:58;9.50;;;2.20;;
69835;SDS011;57132;51.972;4.450;2023-03-14T00:07:23;11.00;;;3.10;;
69835;SDS011;57132;51.972;4.450;2023-03-14T00:09:53;13.60;;;2.65;;
69835;SDS011;57132;51.972;4.450;2023-03-14T00:12:18;16.63;;;2.42;;
69835;SDS011;57132;51.972;4.450;2023-03-14T00:14:44;12.07;;;2.72;;
69835;SDS011;57132;51.972;4.450;2023-03-14T00:17:09;14.60;;;2.75;;
69835;SDS011;57132;51.972;4.450;2023-03-14T00:19:34;19.73;;;3.40;;
69835;SDS011;57132;51.972;4.450;2023-03-14T00:22:00;14.68;;;3.05;;
69835;SDS011;57132;51.972;4.450;2023-03-14T00:24:25;9.65;;;2.22;;
69835;SDS011;57132;51.972;4.450;2023-03-14T00:26:50;21.73;;;3.20;;
69835;SDS011;57132;51.972;4.450;2023-03-14T00:29:16;17.20;;;3.58;;
69835;SDS011;57132;51.972;4.450;2023-03-14T00:31:41;12.80;;;2.72;;
69835;SDS011;57132;51.972;4.450;2023-03-14T00:34:07;16.40;;;2.97;;
69835;SDS011;57132;51.972;4.450;2023-03-14T00:36:32;22.10;;;4.55;;
69835;SDS011;57132;51.972;4.450;2023-03-14T00:38:57;12.63;;;2.97;;
69835;SDS011;57132;51.972;4.450;2023-03-14T00:41:23;22.25;;;3.33;;
69835;SDS011;57132;51.972;4.450;2023-03-14T00:43:49;21.75;;;3.40;;
69835;SDS011;57132;51.972;4.450;2023-03-14T00:46:15;16.90;;;2.92;;
69835;SDS011;57132;51.972;4.450;2023-03-14T00:48:40;21.85;;;4.72;;
69835;SDS011;57132;51.972;4.450;2023-03-14T00:51:07;17.40;;;3.28;;
69835;SDS011;57132;51.972;4.450;2023-03-14T00:53:37;14.52;;;3.05;;
69835;SDS011;57132;51.972;4.450;2023-03-14T00:56:04;20.77;;;3.00;;
69835;SDS011;57132;51.972;4.450;2023-03-14T00:58:31;17.23;;;3.25;;
69835;SDS011;57132;51.972;4.450;2023-03-14T01:00:56;20.33;;;4.57;;
69835;SDS011;57132;51.972;4.450;2023-03-14T01:03:22;14.30;;;2.80;;
69835;SDS011;57132;51.972;4.450;2023-03-14T01:05:49;18.98;;;2.95;;
69835;SDS011;57132;51.972;4.450;2023-03-14T01:08:14;16.10;;;3.08;;
69835;SDS011;57132;51.972;4.450;2023-03-14T01:10:40;14.50;;;2.15;;
69835;SDS011;57132;51.972;4.450;2023-03-14T01:13:06;14.85;;;3.03;;
69835;SDS011;57132;51.972;4.450;2023-03-14T01:15:33;15.00;;;2.80;;
69835;SDS011;57132;51.972;4.450;2023-03-14T01:17:59;14.77;;;2.72;;
69835;SDS011;57132;51.972;4.450;2023-03-14T01:20:24;16.75;;;2.33;;
69835;SDS011;57132;51.972;4.450;2023-03-14T01:22:50;10.85;;;2.33;;
69835;SDS011;57132;51.972;4.450;2023-03-14T01:25:16;12.23;;;2.45;;
69835;SDS011;57132;51.972;4.450;2023-03-14T01:27:42;12.88;;;2.55;;
69835;SDS011;57132;51.972;4.450;2023-03-14T01:30:08;14.68;;;2.95;;
69835;SDS011;57132;51.972;4.450;2023-03-14T01:32:34;19.45;;;2.88;;
69835;SDS011;57132;51.972;4.450;2023-03-14T01:34:59;20.17;;;3.10;;
69835;SDS011;57132;51.972;4.450;2023-03-14T01:37:25;15.32;;;2.38;;
69835;SDS011;57132;51.972;4.450;2023-03-14T01:39:50;14.07;;;2.50;;
69835;SDS011;57132;51.972;4.450;2023-03-14T01:42:16;10.13;;;2.33;;
69835;SDS011;57132;51.972;4.450;2023-03-14T01:44:48;12.38;;;3.05;;
69835;SDS011;57132;51.972;4.450;2023-03-14T01:47:19;14.95;;;2.70;;
69835;SDS011;57132;51.972;4.450;2023-03-14T01:49:46;21.98;;;2.55;;
69835;SDS011;57132;51.972;4.450;2023-03-14T01:55:05;12.05;;;2.28;;
69835;SDS011;57132;51.972;4.450;2023-03-14T01:57:39;10.35;;;2.30;;
69835;SDS011;57132;51.972;4.450;2023-03-14T02:02:39;11.23;;;2.72;;
69835;SDS011;57132;51.972;4.450;2023-03-14T02:05:08;7.35;;;1.92;;
69835;SDS011;57132;51.972;4.450;2023-03-14T02:07:39;15.77;;;2.67;;
69835;SDS011;57132;51.972;4.450;2023-03-14T02:10:13;15.05;;;2.47;;
69835;SDS011;57132;51.972;4.450;2023-03-14T02:12:40;15.80;;;2.67;;
69835;SDS011;57132;51.972;4.450;2023-03-14T02:15:06;20.15;;;2.47;;
69835;SDS011;57132;51.972;4.450;2023-03-14T02:17:31;18.05;;;4.35;;
69835;SDS011;57132;51.972;4.450;2023-03-14T02:22:33;16.35;;;2.92;;
69835;SDS011;57132;51.972;4.450;2023-03-14T02:27:32;13.48;;;2.53;;
69835;SDS011;57132;51.972;4.450;2023-03-14T02:30:01;10.35;;;3.03;;
69835;SDS011;57132;51.972;4.450;2023-03-14T02:32:31;13.52;;;2.50;;
69835;SDS011;57132;51.972;4.450;2023-03-14T02:34:59;13.63;;;3.00;;
69835;SDS011;57132;51.972;4.450;2023-03-14T02:40:18;11.88;;;3.13;;
69835;SDS011;57132;51.972;4.450;2023-03-14T02:42:44;13.80;;;3.72;;
69835;SDS011;57132;51.972;4.450;2023-03-14T02:47:36;15.80;;;3.42;;
69835;SDS011;57132;51.972;4.450;2023-03-14T02:50:08;11.63;;;2.83;;
69835;SDS011;57132;51.972;4.450;2023-03-14T02:52:37;13.70;;;3.03;;
69835;SDS011;57132;51.972;4.450;2023-03-14T02:55:03;15.32;;;2.97;;
69835;SDS011;57132;51.972;4.450;2023-03-14T02:57:28;23.92;;;5.97;;
69835;SDS011;57132;51.972;4.450;2023-03-14T02:59:56;10.07;;;2.80;;
69835;SDS011;57132;51.972;4.450;2023-03-14T03:02:23;19.02;;;3.33;;
69835;SDS011;57132;51.972;4.450;2023-03-14T03:04:49;18.25;;;2.88;;
69835;SDS011;57132;51.972;4.450;2023-03-14T03:07:14;14.95;;;2.75;;
69835;SDS011;57132;51.972;4.450;2023-03-14T03:09:39;11.57;;;2.92;;
69835;SDS011;57132;51.972;4.450;2023-03-14T03:12:05;16.33;;;2.88;;
69835;SDS011;57132;51.972;4.450;2023-03-14T03:14:30;16.15;;;3.75;;
69835;SDS011;57132;51.972;4.450;2023-03-14T03:16:55;13.32;;;3.47;;
69835;SDS011;57132;51.972;4.450;2023-03-14T03:19:21;13.73;;;3.22;;
69835;SDS011;57132;51.972;4.450;2023-03-14T03:21:46;12.43;;;3.08;;
69835;SDS011;57132;51.972;4.450;2023-03-14T03:24:11;15.35;;;3.10;;
69835;SDS011;57132;51.972;4.450;2023-03-14T03:26:37;18.05;;;2.95;;
69835;SDS011;57132;51.972;4.450;2023-03-14T03:29:02;17.77;;;2.75;;
69835;SDS011;57132;51.972;4.450;2023-03-14T03:31:28;16.63;;;3.25;;
69835;SDS011;57132;51.972;4.450;2023-03-14T03:33:53;12.85;;;4.15;;
69835;SDS011;57132;51.972;4.450;2023-03-14T03:36:23;18.10;;;4.05;;
69835;SDS011;57132;51.972;4.450;2023-03-14T03:38:50;12.85;;;3.22;;
69835;SDS011;57132;51.972;4.450;2023-03-14T03:41:15;14.93;;;3.17;;
69835;SDS011;57132;51.972;4.450;2023-03-14T03:43:40;17.42;;;4.18;;
69835;SDS011;57132;51.972;4.450;2023-03-14T03:46:06;13.88;;;3.28;;
69835;SDS011;57132;51.972;4.450;2023-03-14T03:48:32;12.65;;;3.92;;
69835;SDS011;57132;51.972;4.450;2023-03-14T03:50:58;11.95;;;3.03;;
69835;SDS011;57132;51.972;4.450;2023-03-14T03:53:24;14.27;;;3.10;;
69835;SDS011;57132;51.972;4.450;2023-03-14T03:55:49;7.32;;;1.98;;
69835;SDS011;57132;51.972;4.450;2023-03-14T03:58:15;12.13;;;2.75;;
69835;SDS011;57132;51.972;4.450;2023-03-14T04:00:40;9.73;;;2.40;;
69835;SDS011;57132;51.972;4.450;2023-03-14T04:03:06;23.17;;;3.08;;
69835;SDS011;57132;51.972;4.450;2023-03-14T04:05:31;10.88;;;2.78;;
69835;SDS011;57132;51.972;4.450;2023-03-14T04:07:57;13.45;;;3.05;;
69835;SDS011;57132;51.972;4.450;2023-03-14T04:10:22;11.35;;;3.90;;
69835;SDS011;57132;51.972;4.450;2023-03-14T04:12:48;15.10;;;3.00;;
69835;SDS011;57132;51.972;4.450;2023-03-14T04:15:13;9.70;;;2.35;;
69835;SDS011;57132;51.972;4.450;2023-03-14T04:17:38;17.63;;;3.15;;
69835;SDS011;57132;51.972;4.450;2023-03-14T04:20:04;15.82;;;2.50;;
69835;SDS011;57132;51.972;4.450;2023-03-14T04:22:30;15.43;;;2.90;;
69835;SDS011;57132;51.972;4.450;2023-03-14T04:24:55;13.73;;;3.03;;
69835;SDS011;57132;51.972;4.450;2023-03-14T04:27:20;11.43;;;2.63;;
69835;SDS011;57132;51.972;4.450;2023-03-14T04:29:46;18.42;;;3.20;;
69835;SDS011;57132;51.972;4.450;2023-03-14T04:32:11;14.57;;;2.67;;
69835;SDS011;57132;51.972;4.450;2023-03-14T04:34:36;7.38;;;2.63;;
69835;SDS011;57132;51.972;4.450;2023-03-14T04:37:02;19.63;;;2.97;;
69835;SDS011;57132;51.972;4.450;2023-03-14T04:39:27;13.65;;;3.15;;
69835;SDS011;57132;51.972;4.450;2023-03-14T04:41:53;15.50;;;3.50;;
69835;SDS011;57132;51.972;4.450;2023-03-14T04:44:19;11.35;;;3.67;;
69835;SDS011;57132;51.972;4.450;2023-03-14T04:46:44;11.23;;;3.05;;
69835;SDS011;57132;51.972;4.450;2023-03-14T04:49:09;11.60;;;2.75;;
69835;SDS011;57132;51.972;4.450;2023-03-14T04:51:35;17.90;;;3.78;;
69835;SDS011;57132;51.972;4.450;2023-03-14T04:54:00;9.07;;;3.33;;
69835;SDS011;57132;51.972;4.450;2023-03-14T04:56:26;13.82;;;3.42;;
69835;SDS011;57132;51.972;4.450;2023-03-14T04:58:52;14.77;;;3.70;;
69835;SDS011;57132;51.972;4.450;2023-03-14T05:01:17;10.27;;;3.22;;
69835;SDS011;57132;51.972;4.450;2023-03-14T05:03:43;13.15;;;3.83;;
69835;SDS011;57132;51.972;4.450;2023-03-14T05:06:08;13.40;;;3.13;;
69835;SDS011;57132;51.972;4.450;2023-03-14T05:08:34;10.85;;;4.40;;
69835;SDS011;57132;51.972;4.450;2023-03-14T05:11:00;11.63;;;3.95;;
69835;SDS011;57132;51.972;4.450;2023-03-14T05:13:25;10.77;;;3.75;;
69835;SDS011;57132;51.972;4.450;2023-03-14T05:15:51;13.02;;;3.80;;
69835;SDS011;57132;51.972;4.450;2023-03-14T05:18:17;11.63;;;4.15;;
69835;SDS011;57132;51.972;4.450;2023-03-14T05:20:43;14.88;;;4.30;;
69835;SDS011;57132;51.972;4.450;2023-03-14T05:23:08;19.98;;;4.40;;
69835;SDS011;57132;51.972;4.450;2023-03-14T05:25:34;18.83;;;5.55;;
69835;SDS011;57132;51.972;4.450;2023-03-14T05:28:00;17.50;;;6.68;;
69835;SDS011;57132;51.972;4.450;2023-03-14T05:30:25;13.85;;;3.80;;
69835;SDS011;57132;51.972;4.450;2023-03-14T05:32:52;11.50;;;2.60;;
69835;SDS011;57132;51.972;4.450;2023-03-14T05:35:18;14.15;;;2.88;;
69835;SDS011;57132;51.972;4.450;2023-03-14T05:37:44;13.23;;;1.90;;
69835;SDS011;57132;51.972;4.450;2023-03-14T05:40:09;14.98;;;2.28;;
69835;SDS011;57132;51.972;4.450;2023-03-14T05:42:35;7.20;;;2.22;;
69835;SDS011;57132;51.972;4.450;2023-03-14T05:45:00;7.45;;;1.92;;
69835;SDS011;57132;51.972;4.450;2023-03-14T05:47:26;6.80;;;2.00;;
69835;SDS011;57132;51.972;4.450;2023-03-14T05:49:51;9.32;;;1.75;;
69835;SDS011;57132;51.972;4.450;2023-03-14T05:52:16;9.70;;;2.42;;
69835;SDS011;57132;51.972;4.450;2023-03-14T05:54:42;11.70;;;2.20;;
69835;SDS011;57132;51.972;4.450;2023-03-14T05:57:07;15.25;;;2.63;;
69835;SDS011;57132;51.972;4.450;2023-03-14T05:59:32;7.10;;;2.05;;
69835;SDS011;57132;51.972;4.450;2023-03-14T06:01:58;10.52;;;2.35;;
69835;SDS011;57132;51.972;4.450;2023-03-14T06:04:23;10.90;;;2.15;;
69835;SDS011;57132;51.972;4.450;2023-03-14T06:06:49;6.38;;;1.40;;
69835;SDS011;57132;51.972;4.450;2023-03-14T06:09:15;8.27;;;1.50;;
69835;SDS011;57132;51.972;4.450;2023-03-14T06:11:41;14.55;;;1.70;;
69835;SDS011;57132;51.972;4.450;2023-03-14T06:14:06;11.75;;;2.20;;
69835;SDS011;57132;51.972;4.450;2023-03-14T06:16:32;8.18;;;1.70;;
69835;SDS011;57132;51.972;4.450;2023-03-14T06:18:57;8.73;;;2.13;;
69835;SDS011;57132;51.972;4.450;2023-03-14T06:21:22;11.65;;;1.80;;
69835;SDS011;57132;51.972;4.450;2023-03-14T06:23:48;14.77;;;2.15;;
69835;SDS011;57132;51.972;4.450;2023-03-14T06:26:13;7.32;;;1.65;;
69835;SDS011;57132;51.972;4.450;2023-03-14T06:28:39;7.28;;;1.40;;
69835;SDS011;57132;51.972;4.450;2023-03-14T06:31:04;7.60;;;1.80;;
69835;SDS011;57132;51.972;4.450;2023-03-14T06:33:30;9.02;;;2.00;;
69835;SDS011;57132;51.972;4.450;2023-03-14T06:35:55;10.98;;;1.67;;
69835;SDS011;57132;51.972;4.450;2023-03-14T06:38:21;11.70;;;2.22;;
69835;SDS011;57132;51.972;4.450;2023-03-14T06:40:46;9.80;;;1.35;;
69835;SDS011;57132;51.972;4.450;2023-03-14T06:43:11;7.85;;;1.85;;
69835;SDS011;57132;51.972;4.450;2023-03-14T06:45:37;14.65;;;2.50;;
69835;SDS011;57132;51.972;4.450;2023-03-14T06:48:02;10.75;;;2.20;;
69835;SDS011;57132;51.972;4.450;2023-03-14T06:50:28;16.55;;;2.13;;
69835;SDS011;57132;51.972;4.450;2023-03-14T06:52:53;12.00;;;1.77;;
69835;SDS011;57132;51.972;4.450;2023-03-14T06:55:18;14.18;;;1.77;;
69835;SDS011;57132;51.972;4.450;2023-03-14T06:57:44;16.20;;;2.50;;
69835;SDS011;57132;51.972;4.450;2023-03-14T07:00:10;15.32;;;1.50;;
69835;SDS011;57132;51.972;4.450;2023-03-14T07:02:37;11.02;;;1.73;;
69835;SDS011;57132;51.972;4.450;2023-03-14T07:05:02;17.58;;;2.25;;
69835;SDS011;57132;51.972;4.450;2023-03-14T07:07:28;14.55;;;2.05;;
69835;SDS011;57132;51.972;4.450;2023-03-14T07:09:54;12.45;;;2.05;;
69835;SDS011;57132;51.972;4.450;2023-03-14T07:12:19;13.05;;;2.35;;
69835;SDS011;57132;51.972;4.450;2023-03-14T07:14:44;28.80;;;3.28;;
69835;SDS011;57132;51.972;4.450;2023-03-14T07:17:10;16.00;;;2.72;;
69835;SDS011;57132;51.972;4.450;2023-03-14T07:19:35;19.95;;;2.33;;
69835;SDS011;57132;51.972;4.450;2023-03-14T07:22:01;15.50;;;1.95;;
69835;SDS011;57132;51.972;4.450;2023-03-14T07:24:26;18.27;;;2.30;;
69835;SDS011;57132;51.972;4.450;2023-03-14T07:26:51;24.85;;;2.97;;
69835;SDS011;57132;51.972;4.450;2023-03-14T07:29:17;11.68;;;1.90;;
69835;SDS011;57132;51.972;4.450;2023-03-14T07:31:42;14.10;;;2.20;;
69835;SDS011;57132;51.972;4.450;2023-03-14T07:34:08;11.05;;;2.72;;
69835;SDS011;57132;51.972;4.450;2023-03-14T07:36:33;8.73;;;1.52;;
69835;SDS011;57132;51.972;4.450;2023-03-14T07:38:59;15.75;;;2.10;;
69835;SDS011;57132;51.972;4.450;2023-03-14T07:41:24;13.57;;;1.63;;
69835;SDS011;57132;51.972;4.450;2023-03-14T07:43:50;5.13;;;1.40;;
69835;SDS011;57132;51.972;4.450;2023-03-14T07:46:15;8.20;;;1.70;;
69835;SDS011;57132;51.972;4.450;2023-03-14T07:48:40;7.60;;;1.40;;
69835;SDS011;57132;51.972;4.450;2023-03-14T07:51:06;6.75;;;1.25;;
69835;SDS011;57132;51.972;4.450;2023-03-14T07:53:32;7.70;;;1.60;;
69835;SDS011;57132;51.972;4.450;2023-03-14T07:55:57;10.30;;;1.33;;
69835;SDS011;57132;51.972;4.450;2023-03-14T07:58:23;11.50;;;1.65;;
69835;SDS011;57132;51.972;4.450;2023-03-14T08:00:49;13.15;;;1.48;;
69835;SDS011;57132;51.972;4.450;2023-03-14T08:03:15;8.50;;;1.60;;
69835;SDS011;57132;51.972;4.450;2023-03-14T08:05:41;25.17;;;2.45;;
69835;SDS011;57132;51.972;4.450;2023-03-14T08:08:07;10.40;;;1.50;;
69835;SDS011;57132;51.972;4.450;2023-03-14T08:10:32;5.35;;;1.25;;
69835;SDS011;57132;51.972;4.450;2023-03-14T08:12:59;6.72;;;1.27;;
69835;SDS011;57132;51.972;4.450;2023-03-14T08:15:26;11.93;;;1.65;;
69835;SDS011;57132;51.972;4.450;2023-03-14T08:17:54;5.50;;;1.17;;
69835;SDS011;57132;51.972;4.450;2023-03-14T08:20:20;12.27;;;1.83;;
69835;SDS011;57132;51.972;4.450;2023-03-14T08:22:47;13.98;;;2.70;;
69835;SDS011;57132;51.972;4.450;2023-03-14T08:25:13;10.00;;;1.67;;
69835;SDS011;57132;51.972;4.450;2023-03-14T08:27:38;10.70;;;1.60;;
69835;SDS011;57132;51.972;4.450;2023-03-14T08:30:05;17.88;;;3.13;;
69835;SDS011;57132;51.972;4.450;2023-03-14T08:32:31;16.42;;;1.60;;
69835;SDS011;57132;51.972;4.450;2023-03-14T08:34:57;10.32;;;1.33;;
69835;SDS011;57132;51.972;4.450;2023-03-14T08:37:23;12.73;;;1.95;;
69835;SDS011;57132;51.972;4.450;2023-03-14T08:39:49;9.50;;;2.03;;
69835;SDS011;57132;51.972;4.450;2023-03-14T08:42:15;9.15;;;0.80;;
69835;SDS011;57132;51.972;4.450;2023-03-14T08:44:41;8.35;;;1.08;;
69835;SDS011;57132;51.972;4.450;2023-03-14T08:47:06;12.98;;;1.30;;
69835;SDS011;57132;51.972;4.450;2023-03-14T08:49:31;4.30;;;0.80;;
69835;SDS011;57132;51.972;4.450;2023-03-14T08:51:57;9.73;;;1.20;;
69835;SDS011;57132;51.972;4.450;2023-03-14T08:54:23;10.27;;;1.50;;
69835;SDS011;57132;51.972;4.450;2023-03-14T08:56:49;5.93;;;1.30;;
69835;SDS011;57132;51.972;4.450;2023-03-14T08:59:14;13.32;;;1.83;;
69835;SDS011;57132;51.972;4.450;2023-03-14T09:01:39;11.45;;;2.03;;
69835;SDS011;57132;51.972;4.450;2023-03-14T09:04:05;6.78;;;1.58;;
69835;SDS011;57132;51.972;4.450;2023-03-14T09:06:31;10.32;;;1.27;;
69835;SDS011;57132;51.972;4.450;2023-03-14T09:08:57;10.05;;;1.98;;
69835;SDS011;57132;51.972;4.450;2023-03-14T09:11:22;14.68;;;2.10;;
69835;SDS011;57132;51.972;4.450;2023-03-14T09:13:48;9.20;;;1.52;;
69835;SDS011;57132;51.972;4.450;2023-03-14T09:16:13;14.85;;;2.42;;
69835;SDS011;57132;51.972;4.450;2023-03-14T09:18:39;19.95;;;2.92;;
69835;SDS011;57132;51.972;4.450;2023-03-14T09:21:04;24.25;;;3.13;;
69835;SDS011;57132;51.972;4.450;2023-03-14T09:23:30;29.25;;;4.25;;
69835;SDS011;57132;51.972;4.450;2023-03-14T09:25:58;17.55;;;2.80;;
69835;SDS011;57132;51.972;4.450;2023-03-14T09:28:24;24.10;;;3.75;;
69835;SDS011;57132;51.972;4.450;2023-03-14T09:30:50;26.83;;;2.42;;
69835;SDS011;57132;51.972;4.450;2023-03-14T09:33:16;20.73;;;3.25;;
69835;SDS011;57132;51.972;4.450;2023-03-14T09:35:42;25.00;;;3.15;;
69835;SDS011;57132;51.972;4.450;2023-03-14T09:38:07;20.77;;;3.40;;
69835;SDS011;57132;51.972;4.450;2023-03-14T09:40:37;17.77;;;2.72;;
69835;SDS011;57132;51.972;4.450;2023-03-14T09:43:03;24.10;;;2.63;;
69835;SDS011;57132;51.972;4.450;2023-03-14T09:45:31;17.77;;;2.58;;
69835;SDS011;57132;51.972;4.450;2023-03-14T09:48:01;15.80;;;2.05;;
69835;SDS011;57132;51.972;4.450;2023-03-14T09:50:45;8.00;;;1.70;;
69835;SDS011;57132;51.972;4.450;2023-03-14T09:53:16;23.83;;;2.45;;
69835;SDS011;57132;51.972;4.450;2023-03-14T09:55:48;16.70;;;2.97;;
69835;SDS011;57132;51.972;4.450;2023-03-14T09:58:22;14.80;;;2.72;;
69835;SDS011;57132;51.972;4.450;2023-03-14T10:00:52;24.77;;;3.25;;
69835;SDS011;57132;51.972;4.450;2023-03-14T10:03:25;17.92;;;2.45;;
69835;SDS011;57132;51.972;4.450;2023-03-14T10:06:00;25.58;;;3.95;;
69835;SDS011;57132;51.972;4.450;2023-03-14T10:08:26;18.85;;;2.30;;
69835;SDS011;57132;51.972;4.450;2023-03-14T10:10:52;20.35;;;3.15;;
69835;SDS011;57132;51.972;4.450;2023-03-14T10:13:25;29.73;;;3.15;;
69835;SDS011;57132;51.972;4.450;2023-03-14T10:18:31;19.85;;;3.28;;
69835;SDS011;57132;51.972;4.450;2023-03-14T10:21:21;26.00;;;3.33;;
69835;SDS011;57132;51.972;4.450;2023-03-14T10:23:49;27.27;;;4.00;;
69835;SDS011;57132;51.972;4.450;2023-03-14T10:26:16;17.60;;;3.35;;
69835;SDS011;57132;51.972;4.450;2023-03-14T10:28:54;25.10;;;3.15;;
69835;SDS011;57132;51.972;4.450;2023-03-14T10:31:27;24.98;;;3.55;;
69835;SDS011;57132;51.972;4.450;2023-03-14T10:34:00;25.48;;;3.28;;
69835;SDS011;57132;51.972;4.450;2023-03-14T10:41:52;27.63;;;3.00;;
69835;SDS011;57132;51.972;4.450;2023-03-14T10:44:39;20.00;;;3.17;;
69835;SDS011;57132;51.972;4.450;2023-03-14T10:47:06;33.83;;;4.97;;
69835;SDS011;57132;51.972;4.450;2023-03-14T10:54:35;20.17;;;4.50;;
69835;SDS011;57132;51.972;4.450;2023-03-14T10:57:00;21.33;;;3.30;;
69835;SDS011;57132;51.972;4.450;2023-03-14T10:59:31;27.83;;;4.47;;
69835;SDS011;57132;51.972;4.450;2023-03-14T11:02:13;18.67;;;2.63;;
69835;SDS011;57132;51.972;4.450;2023-03-14T11:07:41;20.95;;;3.38;;
69835;SDS011;57132;51.972;4.450;2023-03-14T11:13:16;23.75;;;3.38;;
69835;SDS011;57132;51.972;4.450;2023-03-14T11:24:04;13.32;;;2.30;;
69835;SDS011;57132;51.972;4.450;2023-03-14T11:34:56;19.77;;;3.05;;
69835;SDS011;57132;51.972;4.450;2023-03-14T11:40:02;17.90;;;2.13;;
69835;SDS011;57132;51.972;4.450;2023-03-14T11:42:29;16.02;;;2.53;;
69835;SDS011;57132;51.972;4.450;2023-03-14T11:44:57;15.43;;;2.70;;
69835;SDS011;57132;51.972;4.450;2023-03-14T11:47:34;7.78;;;1.48;;
69835;SDS011;57132;51.972;4.450;2023-03-14T11:50:08;11.52;;;2.28;;
69835;SDS011;57132;51.972;4.450;2023-03-14T11:55:26;17.95;;;3.05;;
69835;SDS011;57132;51.972;4.450;2023-03-14T11:57:56;19.45;;;2.72;;
69835;SDS011;57132;51.972;4.450;2023-03-14T12:00:25;10.10;;;2.03;;
69835;SDS011;57132;51.972;4.450;2023-03-14T12:03:02;9.93;;;1.85;;
69835;SDS011;57132;51.972;4.450;2023-03-14T12:05:36;16.48;;;1.98;;
69835;SDS011;57132;51.972;4.450;2023-03-14T12:13:04;17.05;;;2.17;;
69835;SDS011;57132;51.972;4.450;2023-03-14T12:15:36;14.05;;;2.00;;
69835;SDS011;57132;51.972;4.450;2023-03-14T12:21:07;15.50;;;2.35;;
69835;SDS011;57132;51.972;4.450;2023-03-14T12:23:41;10.05;;;2.05;;
69835;SDS011;57132;51.972;4.450;2023-03-14T12:26:24;9.43;;;2.00;;
69835;SDS011;57132;51.972;4.450;2023-03-14T12:42:01;7.20;;;1.65;;
69835;SDS011;57132;51.972;4.450;2023-03-14T12:44:47;14.73;;;2.47;;
69835;SDS011;57132;51.972;4.450;2023-03-14T12:49:43;15.32;;;2.08;;
69835;SDS011;57132;51.972;4.450;2023-03-14T12:52:14;8.68;;;1.80;;
69835;SDS011;57132;51.972;4.450;2023-03-14T13:00:03;4.50;;;1.20;;
69835;SDS011;57132;51.972;4.450;2023-03-14T13:02:42;9.05;;;1.55;;
69835;SDS011;57132;51.972;4.450;2023-03-14T13:05:13;10.82;;;1.50;;
69835;SDS011;57132;51.972;4.450;2023-03-14T13:15:21;8.45;;;1.10;;
69835;SDS011;57132;51.972;4.450;2023-03-14T13:18:01;9.60;;;1.85;;
69835;SDS011;57132;51.972;4.450;2023-03-14T13:20:33;10.43;;;1.60;;
69835;SDS011;57132;51.972;4.450;2023-03-14T13:23:01;10.77;;;1.98;;
69835;SDS011;57132;51.972;4.450;2023-03-14T13:25:31;8.25;;;1.40;;
69835;SDS011;57132;51.972;4.450;2023-03-14T13:27:59;19.55;;;1.70;;
69835;SDS011;57132;51.972;4.450;2023-03-14T13:30:27;8.02;;;1.30;;
69835;SDS011;57132;51.972;4.450;2023-03-14T13:33:00;9.38;;;1.95;;
69835;SDS011;57132;51.972;4.450;2023-03-14T13:35:29;7.20;;;1.65;;
69835;SDS011;57132;51.972;4.450;2023-03-14T13:38:04;9.15;;;1.60;;
69835;SDS011;57132;51.972;4.450;2023-03-14T13:40:39;8.10;;;1.58;;
69835;SDS011;57132;51.972;4.450;2023-03-14T13:43:16;13.73;;;2.00;;
69835;SDS011;57132;51.972;4.450;2023-03-14T13:45:45;11.95;;;1.77;;
69835;SDS011;57132;51.972;4.450;2023-03-14T13:48:22;9.55;;;1.55;;
69835;SDS011;57132;51.972;4.450;2023-03-14T13:50:53;4.03;;;1.33;;
69835;SDS011;57132;51.972;4.450;2023-03-14T13:53:21;9.30;;;1.45;;
69835;SDS011;57132;51.972;4.450;2023-03-14T13:55:48;7.60;;;1.83;;
69835;SDS011;57132;51.972;4.450;2023-03-14T13:58:21;7.90;;;1.60;;
69835;SDS011;57132;51.972;4.450;2023-03-14T14:01:02;9.52;;;1.63;;
69835;SDS011;57132;51.972;4.450;2023-03-14T14:03:35;11.35;;;1.27;;
69835;SDS011;57132;51.972;4.450;2023-03-14T14:06:05;6.82;;;1.52;;
69835;SDS011;57132;51.972;4.450;2023-03-14T14:08:35;18.05;;;1.85;;
69835;SDS011;57132;51.972;4.450;2023-03-14T14:11:01;5.90;;;1.30;;
69835;SDS011;57132;51.972;4.450;2023-03-14T14:13:29;8.63;;;1.58;;
69835;SDS011;57132;51.972;4.450;2023-03-14T14:15:59;10.50;;;2.00;;
69835;SDS011;57132;51.972;4.450;2023-03-14T14:18:28;6.72;;;1.50;;
69835;SDS011;57132;51.972;4.450;2023-03-14T14:20:55;5.53;;;1.50;;
69835;SDS011;57132;51.972;4.450;2023-03-14T14:23:22;13.00;;;2.50;;
69835;SDS011;57132;51.972;4.450;2023-03-14T14:25:53;12.65;;;1.35;;
69835;SDS011;57132;51.972;4.450;2023-03-14T14:28:25;8.13;;;2.33;;
69835;SDS011;57132;51.972;4.450;2023-03-14T14:31:17;11.75;;;1.40;;
69835;SDS011;57132;51.972;4.450;2023-03-14T14:33:55;6.93;;;1.73;;
69835;SDS011;57132;51.972;4.450;2023-03-14T14:36:31;10.65;;;1.27;;
69835;SDS011;57132;51.972;4.450;2023-03-14T14:41:35;10.88;;;1.42;;
69835;SDS011;57132;51.972;4.450;2023-03-14T14:44:06;7.50;;;1.85;;
69835;SDS011;57132;51.972;4.450;2023-03-14T14:46:32;16.23;;;1.73;;
69835;SDS011;57132;51.972;4.450;2023-03-14T14:49:10;12.52;;;1.50;;
69835;SDS011;57132;51.972;4.450;2023-03-14T14:51:43;6.15;;;2.13;;
69835;SDS011;57132;51.972;4.450;2023-03-14T14:54:16;10.85;;;1.75;;
69835;SDS011;57132;51.972;4.450;2023-03-14T14:56:50;8.85;;;1.27;;
69835;SDS011;57132;51.972;4.450;2023-03-14T14:59:27;9.75;;;1.58;;
69835;SDS011;57132;51.972;4.450;2023-03-14T15:01:57;5.63;;;1.75;;
69835;SDS011;57132;51.972;4.450;2023-03-14T15:04:25;9.48;;;1.30;;
69835;SDS011;57132;51.972;4.450;2023-03-14T15:06:51;11.85;;;1.98;;
69835;SDS011;57132;51.972;4.450;2023-03-14T15:09:18;5.85;;;1.35;;
69835;SDS011;57132;51.972;4.450;2023-03-14T15:11:45;8.02;;;1.35;;
69835;SDS011;57132;51.972;4.450;2023-03-14T15:14:11;14.98;;;2.17;;
69835;SDS011;57132;51.972;4.450;2023-03-14T15:16:36;12.90;;;1.60;;
69835;SDS011;57132;51.972;4.450;2023-03-14T15:19:08;5.50;;;2.55;;
69835;SDS011;57132;51.972;4.450;2023-03-14T15:21:36;12.90;;;1.88;;
69835;SDS011;57132;51.972;4.450;2023-03-14T15:24:03;10.98;;;1.70;;
69835;SDS011;57132;51.972;4.450;2023-03-14T15:26:29;10.43;;;1.80;;
69835;SDS011;57132;51.972;4.450;2023-03-14T15:28:55;5.78;;;1.35;;
69835;SDS011;57132;51.972;4.450;2023-03-14T15:31:20;8.32;;;1.70;;
69835;SDS011;57132;51.972;4.450;2023-03-14T15:33:46;9.88;;;1.40;;
69835;SDS011;57132;51.972;4.450;2023-03-14T15:38:49;8.23;;;1.40;;
69835;SDS011;57132;51.972;4.450;2023-03-14T15:41:15;6.82;;;1.58;;
69835;SDS011;57132;51.972;4.450;2023-03-14T15:43:41;10.35;;;1.65;;
69835;SDS011;57132;51.972;4.450;2023-03-14T15:46:10;10.45;;;1.88;;
69835;SDS011;57132;51.972;4.450;2023-03-14T15:48:37;11.13;;;1.50;;
69835;SDS011;57132;51.972;4.450;2023-03-14T15:51:02;10.77;;;1.60;;
69835;SDS011;57132;51.972;4.450;2023-03-14T15:53:28;9.35;;;1.33;;
69835;SDS011;57132;51.972;4.450;2023-03-14T15:55:53;11.27;;;1.38;;
69835;SDS011;57132;51.972;4.450;2023-03-14T15:58:19;4.93;;;1.10;;
69835;SDS011;57132;51.972;4.450;2023-03-14T16:00:46;8.57;;;2.50;;
69835;SDS011;57132;51.972;4.450;2023-03-14T16:03:12;5.47;;;1.17;;
69835;SDS011;57132;51.972;4.450;2023-03-14T16:05:38;6.80;;;1.05;;
69835;SDS011;57132;51.972;4.450;2023-03-14T16:08:04;11.05;;;1.77;;
69835;SDS011;57132;51.972;4.450;2023-03-14T16:10:30;8.88;;;1.45;;
69835;SDS011;57132;51.972;4.450;2023-03-14T16:12:55;5.40;;;1.17;;
69835;SDS011;57132;51.972;4.450;2023-03-14T16:15:21;7.93;;;1.30;;
69835;SDS011;57132;51.972;4.450;2023-03-14T16:17:51;11.73;;;1.48;;